createdAt,value
2023-04-22T00:00:23.446Z,99518.12
2023-04-22T00:01:27.777Z,99519.47
2023-04-22T00:02:32.127Z,99514.27
2023-04-22T00:03:35.803Z,99510.75
2023-04-22T00:04:42.302Z,99515.23
2023-04-22T00:05:48.778Z,99512.32
2023-04-22T00:06:52.918Z,99521.25
2023-04-22T00:08:04.879Z,99510.27
2023-04-22T00:09:08.402Z,99510.39
2023-04-22T00:10:11.265Z,99509.31
2023-04-22T00:11:15.090Z,99510.52
2023-04-22T00:12:17.745Z,99510.89
2023-04-22T00:13:23.560Z,99503.78
2023-04-22T00:14:26.955Z,99505.94
2023-04-22T00:15:30.136Z,99509.31
2023-04-22T00:16:34.439Z,99509.09
2023-04-22T00:17:37.674Z,99514.97
2023-04-22T00:18:41.079Z,99512.94
2023-04-22T00:19:44.587Z,99504.13
2023-04-22T00:20:48.413Z,99507.52
2023-04-22T00:21:50.874Z,99511.70
2023-04-22T00:22:55.274Z,99506.52
2023-04-22T00:24:00.114Z,99510.74
2023-04-22T00:25:03.754Z,99511.24
2023-04-22T00:26:07.180Z,99513.17
2023-04-22T00:27:11.835Z,99507.63
2023-04-22T00:28:15.993Z,99508.47
2023-04-22T00:29:19.362Z,99514.86
2023-04-22T00:30:24.006Z,99511.36
2023-04-22T00:31:29.032Z,99510.63
2023-04-22T00:32:32.282Z,99515.70
2023-04-22T00:33:36.715Z,99513.05
2023-04-22T00:34:40.223Z,99509.66
2023-04-22T00:35:43.123Z,99509.55
2023-04-22T00:36:45.778Z,99508.09
2023-04-22T00:37:49.662Z,99509.93
2023-04-22T00:38:52.777Z,99518.82
2023-04-22T00:39:57.223Z,99523.97
2023-04-22T00:41:01.049Z,99515.63
2023-04-22T00:42:08.904Z,99523.58
2023-04-22T00:43:15.613Z,99516.02
2023-04-22T00:44:19.296Z,99523.05
2023-04-22T00:45:23.637Z,99517.97
2023-04-22T00:46:29.565Z,99513.40
2023-04-22T00:47:35.721Z,99520.28
2023-04-22T00:48:38.540Z,99515.52
2023-04-22T00:49:42.886Z,99521.44
2023-04-22T00:50:49.097Z,99520.28
2023-04-22T00:51:54.900Z,99520.89
2023-04-22T00:52:58.064Z,99517.05
2023-04-22T00:54:06.186Z,99517.52
2023-04-22T00:55:10.113Z,99521.13
2023-04-22T00:56:14.454Z,99514.97
2023-04-22T00:57:19.215Z,99518.70
2023-04-22T00:58:23.174Z,99528.70
2023-04-22T00:59:28.520Z,99528.13
2023-04-22T01:00:33.726Z,99522.44
2023-04-22T01:01:37.926Z,99525.70
2023-04-22T01:02:41.701Z,99533.73
2023-04-22T01:03:46.750Z,99530.35
2023-04-22T01:04:53.888Z,99529.73
2023-04-22T01:05:59.067Z,99536.51
2023-04-22T01:07:05.333Z,99534.16
2023-04-22T01:08:08.161Z,99535.70
2023-04-22T01:09:11.881Z,99532.70
2023-04-22T01:10:14.963Z,99538.86
2023-04-22T01:11:21.379Z,99527.89
2023-04-22T01:12:25.750Z,99528.52
2023-04-22T01:13:31.165Z,99541.05
2023-04-22T01:14:35.166Z,99539.89
2023-04-22T01:15:38.474Z,99544.67
2023-04-22T01:16:43.030Z,99541.68
2023-04-22T01:17:48.066Z,99541.42
2023-04-22T01:18:51.251Z,99542.34
2023-04-22T01:19:55.058Z,99536.51
2023-04-22T01:20:57.736Z,99540.61
2023-04-22T01:22:04.709Z,99537.56
2023-04-22T01:23:09.861Z,99532.31
2023-04-22T01:24:14.656Z,99542.45
2023-04-22T01:25:18.267Z,99537.88
2023-04-22T01:26:23.097Z,99531.84
2023-04-22T01:27:26.420Z,99537.67
2023-04-22T01:28:30.131Z,99533.72
2023-04-22T01:29:37.392Z,99533.85
2023-04-22T01:30:43.093Z,99537.77
2023-04-22T01:31:47.223Z,99536.08
2023-04-22T01:32:51.060Z,99541.27
2023-04-22T01:33:55.475Z,99538.47
2023-04-22T01:34:58.999Z,99535.89
2023-04-22T01:36:02.683Z,99539.05
2023-04-22T01:37:07.339Z,99540.55
2023-04-22T01:38:10.738Z,99532.89
2023-04-22T01:39:14.260Z,99540.97
2023-04-22T01:40:18.898Z,99537.47
2023-04-22T01:41:23.030Z,99544.58
2023-04-22T01:42:28.408Z,99539.88
2023-04-22T01:43:31.714Z,99549.38
2023-04-22T01:44:35.109Z,99543.11
2023-04-22T01:45:40.309Z,99550.59
2023-04-22T01:46:43.720Z,99544.90
2023-04-22T01:47:46.991Z,99544.67
2023-04-22T01:48:53.612Z,99540.44
2023-04-22T01:50:00.796Z,99547.55
2023-04-22T01:51:04.188Z,99540.10
2023-04-22T01:52:08.731Z,99537.67
2023-04-22T01:53:12.365Z,99540.44
2023-04-22T01:54:17.632Z,99543.20
2023-04-22T01:55:25.607Z,99535.76
2023-04-22T01:56:29.221Z,99536.37
2023-04-22T01:57:32.612Z,99539.27
2023-04-22T01:58:36.476Z,99540.73
2023-04-22T01:59:42.566Z,99547.77
2023-04-22T02:00:47.476Z,99547.58
2023-04-22T02:01:51.612Z,99549.38
2023-04-22T02:02:55.123Z,99546.61
2023-04-22T02:03:59.928Z,99550.00
2023-04-22T02:05:02.905Z,99561.09
2023-04-22T02:06:05.481Z,99556.75
2023-04-22T02:07:08.870Z,99556.11
2023-04-22T02:08:12.720Z,99563.23
2023-04-22T02:09:17.229Z,99552.01
2023-04-22T02:10:22.626Z,99552.86
2023-04-22T02:11:26.251Z,99547.52
2023-04-22T02:12:29.741Z,99557.80
2023-04-22T02:13:43.664Z,99551.53
2023-04-22T02:14:49.459Z,99557.06
2023-04-22T02:15:53.440Z,99554.66
2023-04-22T02:16:58.459Z,99556.02
2023-04-22T02:18:03.148Z,99554.94
2023-04-22T02:19:06.107Z,99556.24
2023-04-22T02:20:13.658Z,99549.95
2023-04-22T02:21:16.899Z,99550.87
2023-04-22T02:22:19.668Z,99548.16
2023-04-22T02:23:25.678Z,99554.78
2023-04-22T02:24:30.217Z,99555.96
2023-04-22T02:25:34.661Z,99553.53
2023-04-22T02:26:38.071Z,99554.27
2023-04-22T02:27:41.996Z,99554.48
2023-04-22T02:28:46.221Z,99549.92
2023-04-22T02:29:49.950Z,99552.69
2023-04-22T02:30:53.693Z,99552.91
2023-04-22T02:32:00.715Z,99548.40
2023-04-22T02:33:05.986Z,99543.32
2023-04-22T02:34:09.188Z,99547.88
2023-04-22T02:35:12.492Z,99556.67
2023-04-22T02:36:15.890Z,99551.00
2023-04-22T02:37:20.713Z,99554.19
2023-04-22T02:38:24.461Z,99544.44
2023-04-22T02:39:28.790Z,99550.80
2023-04-22T02:40:33.349Z,99545.92
2023-04-22T02:41:36.233Z,99545.07
2023-04-22T02:42:39.950Z,99546.66
2023-04-22T02:43:45.401Z,99546.55
2023-04-22T02:44:49.272Z,99549.30
2023-04-22T02:45:53.395Z,99543.59
2023-04-22T02:46:58.001Z,99550.78
2023-04-22T02:48:01.515Z,99549.56
2023-04-22T02:49:05.968Z,99547.94
2023-04-22T02:50:09.292Z,99551.64
2023-04-22T02:51:13.936Z,99548.50
2023-04-22T02:52:17.132Z,99547.88
2023-04-22T02:53:20.528Z,99552.33
2023-04-22T02:54:24.125Z,99551.27
2023-04-22T02:55:27.854Z,99554.55
2023-04-22T02:56:32.310Z,99555.98
2023-04-22T02:57:35.909Z,99556.63
2023-04-22T02:58:39.410Z,99555.03
2023-04-22T02:59:43.656Z,99557.41
2023-04-22T03:00:48.984Z,99559.64
2023-04-22T03:01:52.558Z,99558.15
2023-04-22T03:03:03.558Z,99553.45
2023-04-22T03:04:08.737Z,99562.94
2023-04-22T03:05:12.269Z,99559.63
2023-04-22T03:06:14.808Z,99567.93
2023-04-22T03:07:19.798Z,99570.33
2023-04-22T03:08:23.319Z,99573.09
2023-04-22T03:09:25.750Z,99563.52
2023-04-22T03:10:29.272Z,99567.30
2023-04-22T03:11:33.585Z,99567.63
2023-04-22T03:12:38.972Z,99568.59
2023-04-22T03:13:41.545Z,99567.19
2023-04-22T03:14:45.170Z,99567.78
2023-04-22T03:15:49.066Z,99567.67
2023-04-22T03:16:55.488Z,99571.73
2023-04-22T03:18:03.453Z,99573.42
2023-04-22T03:19:06.258Z,99581.67
2023-04-22T03:20:09.867Z,99574.59
2023-04-22T03:21:13.277Z,99577.48
2023-04-22T03:22:17.102Z,99578.93
2023-04-22T03:23:20.418Z,99578.93
2023-04-22T03:24:23.686Z,99579.92
2023-04-22T03:25:28.821Z,99580.93
2023-04-22T03:26:32.265Z,99588.22
2023-04-22T03:27:36.086Z,99584.13
2023-04-22T03:28:40.858Z,99583.17
2023-04-22T03:29:44.350Z,99586.12
2023-04-22T03:30:48.035Z,99587.13
2023-04-22T03:31:53.093Z,99591.61
2023-04-22T03:32:56.981Z,99586.92
2023-04-22T03:34:02.160Z,99587.06
2023-04-22T03:35:07.004Z,99599.61
2023-04-22T03:36:14.676Z,99591.27
2023-04-22T03:37:17.740Z,99599.12
2023-04-22T03:38:23.057Z,99600.08
2023-04-22T03:39:28.136Z,99596.84
2023-04-22T03:40:30.574Z,99598.41
2023-04-22T03:41:34.290Z,99601.53
2023-04-22T03:42:38.246Z,99603.36
2023-04-22T03:43:41.715Z,99605.78
2023-04-22T03:44:53.474Z,99611.94
2023-04-22T03:46:01.851Z,99605.39
2023-04-22T03:47:07.166Z,99607.58
2023-04-22T03:48:12.760Z,99607.35
2023-04-22T03:49:18.151Z,99610.47
2023-04-22T03:50:23.652Z,99613.73
2023-04-22T03:51:29.636Z,99612.66
2023-04-22T03:52:34.629Z,99616.17
2023-04-22T03:53:38.117Z,99608.69
2023-04-22T03:54:41.825Z,99617.86
2023-04-22T03:55:45.256Z,99611.70
2023-04-22T03:56:52.414Z,99616.39
2023-04-22T03:58:00.603Z,99619.78
2023-04-22T03:59:04.112Z,99619.05
2023-04-22T04:00:08.967Z,99624.48
2023-04-22T04:01:15.637Z,99626.07
2023-04-22T04:02:19.905Z,99629.66
2023-04-22T04:03:23.922Z,99628.21
2023-04-22T04:04:30.245Z,99629.30
2023-04-22T04:05:36.077Z,99628.52
2023-04-22T04:06:40.024Z,99632.97
2023-04-22T04:07:43.422Z,99635.09
2023-04-22T04:08:50.329Z,99639.33
2023-04-22T04:09:53.152Z,99641.09
2023-04-22T04:10:55.702Z,99649.14
2023-04-22T04:11:58.593Z,99643.13
2023-04-22T04:13:04.509Z,99651.11
2023-04-22T04:14:09.779Z,99649.77
2023-04-22T04:15:22.162Z,99645.59
2023-04-22T04:16:29.555Z,99655.91
2023-04-22T04:17:34.829Z,99659.42
2023-04-22T04:18:39.362Z,99654.26
2023-04-22T04:19:43.351Z,99654.81
2023-04-22T04:20:46.164Z,99653.41
2023-04-22T04:21:49.782Z,99658.26
2023-04-22T04:22:52.953Z,99657.42
2023-04-22T04:23:56.781Z,99660.02
2023-04-22T04:25:02.585Z,99670.00
2023-04-22T04:26:09.127Z,99663.69
2023-04-22T04:27:14.514Z,99672.34
2023-04-22T04:28:19.886Z,99673.57
2023-04-22T04:29:23.710Z,99670.45
2023-04-22T04:30:27.836Z,99668.78
2023-04-22T04:31:33.024Z,99674.20
2023-04-22T04:32:38.156Z,99673.09
2023-04-22T04:33:46.661Z,99676.97
2023-04-22T04:34:53.015Z,99679.13
2023-04-22T04:35:58.802Z,99687.09
2023-04-22T04:37:04.381Z,99678.94
2023-04-22T04:38:08.766Z,99687.84
2023-04-22T04:39:12.430Z,99690.48
2023-04-22T04:40:16.187Z,99691.06
2023-04-22T04:41:23.200Z,99687.54
2023-04-22T04:42:27.071Z,99678.50
2023-04-22T04:43:35.920Z,99680.35
2023-04-22T04:44:41.170Z,99680.89
2023-04-22T04:45:48.890Z,99687.71
2023-04-22T04:46:55.192Z,99692.57
2023-04-22T04:47:58.240Z,99695.91
2023-04-22T04:49:06.268Z,99701.96
2023-04-22T04:50:12.284Z,99698.20
2023-04-22T04:51:20.420Z,99698.13
2023-04-22T04:52:25.972Z,99701.09
2023-04-22T04:53:29.814Z,99700.32
2023-04-22T04:54:33.204Z,99707.81
2023-04-22T04:55:37.122Z,99706.72
2023-04-22T04:56:42.824Z,99709.43
2023-04-22T04:57:46.660Z,99718.45
2023-04-22T04:58:49.728Z,99724.63
2023-04-22T04:59:57.503Z,99731.55
2023-04-22T05:01:01.145Z,99731.50
2023-04-22T05:02:06.127Z,99737.85
2023-04-22T05:03:11.147Z,99740.43
2023-04-22T05:04:14.892Z,99743.86
2023-04-22T05:05:20.638Z,99749.16
2023-04-22T05:06:25.884Z,99757.78
2023-04-22T05:07:31.246Z,99764.37
2023-04-22T05:08:33.593Z,99766.63
2023-04-22T05:09:41.081Z,99772.72
2023-04-22T05:10:44.671Z,99771.63
2023-04-22T05:11:49.995Z,99779.21
2023-04-22T05:12:56.073Z,99766.98
2023-04-22T05:14:00.727Z,99770.19
2023-04-22T05:15:09.466Z,99766.02
2023-04-22T05:16:15.769Z,99770.86
2023-04-22T05:17:19.542Z,99769.41
2023-04-22T05:18:23.736Z,99778.75
2023-04-22T05:19:27.244Z,99778.91
2023-04-22T05:20:32.135Z,99785.11
2023-04-22T05:21:35.611Z,99785.33
2023-04-22T05:22:39.126Z,99778.84
2023-04-22T05:23:43.690Z,99785.34
2023-04-22T05:24:47.592Z,99780.30
2023-04-22T05:25:53.586Z,99782.97
2023-04-22T05:26:56.893Z,99781.52
2023-04-22T05:28:00.241Z,99773.03
2023-04-22T05:29:06.545Z,99778.41
2023-04-22T05:30:11.591Z,99779.41
2023-04-22T05:31:15.304Z,99777.25
2023-04-22T05:32:19.201Z,99775.90
2023-04-22T05:33:22.945Z,99787.52
2023-04-22T05:34:27.174Z,99775.34
2023-04-22T05:35:31.100Z,99786.38
2023-04-22T05:36:35.039Z,99780.94
2023-04-22T05:37:39.766Z,99787.00
2023-04-22T05:38:42.851Z,99781.77
2023-04-22T05:39:49.208Z,99785.16
2023-04-22T05:40:52.697Z,99779.17
2023-04-22T05:41:59.445Z,99782.39
2023-04-22T05:43:08.530Z,99772.75
2023-04-22T05:44:12.298Z,99772.39
2023-04-22T05:45:16.253Z,99771.94
2023-04-22T05:46:20.673Z,99773.36
2023-04-22T05:47:26.493Z,99769.86
2023-04-22T05:48:33.301Z,99769.86
2023-04-22T05:49:39.868Z,99771.63
2023-04-22T05:52:04.411Z,99766.81
2023-04-22T05:53:08.977Z,99770.17
2023-04-22T05:54:13.081Z,99774.75
2023-04-22T05:55:19.544Z,99776.47
2023-04-22T05:56:26.032Z,99763.92
2023-04-22T05:57:29.755Z,99769.14
2023-04-22T05:58:34.938Z,99767.00
2023-04-22T05:59:40.485Z,99764.96
2023-04-22T06:00:44.246Z,99773.36
2023-04-22T06:01:48.902Z,99770.53
2023-04-22T06:02:54.017Z,99765.22
2023-04-22T06:03:57.239Z,99770.45
2023-04-22T06:05:01.336Z,99772.48
2023-04-22T06:06:06.522Z,99768.36
2023-04-22T06:07:14.067Z,99771.64
2023-04-22T06:08:17.563Z,99774.66
2023-04-22T06:09:22.005Z,99782.78
2023-04-22T06:10:25.717Z,99782.38
2023-04-22T06:11:29.833Z,99773.99
2023-04-22T06:12:34.312Z,99781.28
2023-04-22T06:13:38.872Z,99771.44
2023-04-22T06:14:41.616Z,99781.89
2023-04-22T06:15:45.514Z,99777.57
2023-04-22T06:16:51.026Z,99777.56
2023-04-22T06:17:54.177Z,99779.42
2023-04-22T06:18:57.928Z,99774.73
2023-04-22T06:20:01.436Z,99778.52
2023-04-22T06:21:06.623Z,99780.87
2023-04-22T06:22:28.697Z,99773.09
2023-04-22T06:23:32.320Z,99774.34
2023-04-22T06:24:38.851Z,99786.92
2023-04-22T06:25:44.340Z,99780.98
2023-04-22T06:26:48.377Z,99775.35
2023-04-22T06:27:51.633Z,99775.70
2023-04-22T06:28:59.889Z,99771.70
2023-04-22T06:30:03.705Z,99773.45
2023-04-22T06:31:07.114Z,99778.81
2023-04-22T06:32:10.908Z,99774.09
2023-04-22T06:33:14.265Z,99780.76
2023-04-22T06:34:20.700Z,99790.08
2023-04-22T06:35:24.449Z,99790.59
2023-04-22T06:36:30.758Z,99792.81
2023-04-22T06:37:37.135Z,99796.17
2023-04-22T06:38:42.956Z,99805.33
2023-04-22T06:40:07.997Z,99815.71
2023-04-22T06:41:28.367Z,99810.22
2023-04-22T06:42:37.494Z,99824.38
2023-04-22T06:43:55.511Z,99827.41
2023-04-22T06:45:01.152Z,99832.38
2023-04-22T06:46:06.324Z,99836.67
2023-04-22T06:47:21.225Z,99848.12
2023-04-22T06:48:29.600Z,99839.67
2023-04-22T06:49:45.486Z,99857.95
2023-04-22T06:52:07.784Z,99856.13
2023-04-22T06:53:13.583Z,99852.55
2023-04-22T06:54:17.951Z,99860.33
2023-04-22T06:55:21.249Z,99862.31
2023-04-22T06:56:25.324Z,99863.72
2023-04-22T06:57:31.915Z,99868.59
2023-04-22T06:58:36.882Z,99873.31
2023-04-22T06:59:40.780Z,99868.34
2023-04-22T07:00:44.916Z,99864.92
2023-04-22T07:01:50.049Z,99863.37
2023-04-22T07:02:56.599Z,99864.92
2023-04-22T07:04:00.188Z,99861.03
2023-04-22T07:05:03.725Z,99863.50
2023-04-22T07:06:08.061Z,99862.88
2023-04-22T07:07:11.901Z,99866.41
2023-04-22T07:08:14.883Z,99856.94
2023-04-22T07:09:18.277Z,99865.08
2023-04-22T07:10:22.097Z,99868.85
2023-04-22T07:11:29.109Z,99871.72
2023-04-22T07:12:36.837Z,99874.41
2023-04-22T07:13:40.019Z,99875.02
2023-04-22T07:14:46.043Z,99877.56
2023-04-22T07:15:49.443Z,99877.02
2023-04-22T07:16:54.318Z,99875.83
2023-04-22T07:17:57.227Z,99866.31
2023-04-22T07:18:59.677Z,99863.75
2023-04-22T07:20:03.147Z,99865.55
2023-04-22T07:21:07.915Z,99871.37
2023-04-22T07:22:11.210Z,99860.91
2023-04-22T07:23:14.787Z,99861.81
2023-04-22T07:24:18.208Z,99861.22
2023-04-22T07:25:21.815Z,99860.91
2023-04-22T07:26:25.322Z,99857.48
2023-04-22T07:27:29.683Z,99856.77
2023-04-22T07:28:33.166Z,99857.86
2023-04-22T07:29:37.069Z,99861.63
2023-04-22T07:30:39.644Z,99849.19
2023-04-22T07:31:43.491Z,99855.91
2023-04-22T07:32:49.050Z,99848.48
2023-04-22T07:33:53.850Z,99849.63
2023-04-22T07:34:57.641Z,99850.55
2023-04-22T07:36:01.270Z,99853.06
2023-04-22T07:37:05.655Z,99847.45
2023-04-22T07:38:09.878Z,99851.13
2023-04-22T07:39:16.049Z,99848.28
2023-04-22T07:40:19.345Z,99843.99
2023-04-22T07:41:22.850Z,99850.34
2023-04-22T07:42:26.125Z,99851.78
2023-04-22T07:43:30.073Z,99852.16
2023-04-22T07:44:34.214Z,99849.08
2023-04-22T07:45:38.991Z,99846.56
2023-04-22T07:46:45.595Z,99842.61
2023-04-22T07:47:48.769Z,99836.42
2023-04-22T07:48:51.466Z,99850.70
2023-04-22T07:49:55.474Z,99847.14
2023-04-22T07:50:58.982Z,99857.05
2023-04-22T07:52:01.440Z,99854.11
2023-04-22T07:53:05.581Z,99847.09
2023-04-22T07:54:08.986Z,99853.31
2023-04-22T07:55:12.358Z,99852.84
2023-04-22T07:56:14.635Z,99854.91
2023-04-22T07:57:17.917Z,99861.25
2023-04-22T07:58:21.071Z,99860.41
2023-04-22T07:59:24.939Z,99865.45
2023-04-22T08:00:30.887Z,99859.30
2023-04-22T08:01:34.218Z,99866.03
2023-04-22T08:02:37.499Z,99864.08
2023-04-22T08:03:41.084Z,99852.34
2023-04-22T08:04:45.162Z,99855.60
2023-04-22T08:05:49.840Z,99863.92
2023-04-22T08:06:53.126Z,99859.95
2023-04-22T08:07:56.531Z,99856.40
2023-04-22T08:09:00.874Z,99856.83
2023-04-22T08:10:03.740Z,99862.38
2023-04-22T08:11:08.314Z,99861.80
2023-04-22T08:12:11.806Z,99864.01
2023-04-22T08:13:16.473Z,99862.33
2023-04-22T08:14:19.958Z,99864.40
2023-04-22T08:15:24.837Z,99858.90
2023-04-22T08:16:28.187Z,99869.19
2023-04-22T08:17:31.505Z,99866.36
2023-04-22T08:18:34.849Z,99865.05
2023-04-22T08:19:39.525Z,99878.98
2023-04-22T08:20:44.226Z,99875.23
2023-04-22T08:21:46.771Z,99872.77
2023-04-22T08:22:51.510Z,99872.73
2023-04-22T08:23:56.582Z,99873.13
2023-04-22T08:25:00.467Z,99871.76
2023-04-22T08:26:04.162Z,99867.04
2023-04-22T08:27:07.764Z,99869.48
2023-04-22T08:28:13.099Z,99871.16
2023-04-22T08:29:16.559Z,99870.72
2023-04-22T08:30:20.576Z,99864.25
2023-04-22T08:31:24.119Z,99876.08
2023-04-22T08:32:29.546Z,99867.96
2023-04-22T08:33:32.667Z,99874.68
2023-04-22T08:34:37.125Z,99865.16
2023-04-22T08:35:41.458Z,99864.10
2023-04-22T08:36:44.634Z,99877.53
2023-04-22T08:37:48.182Z,99876.96
2023-04-22T08:38:51.644Z,99871.25
2023-04-22T08:39:54.951Z,99873.34
2023-04-22T08:41:03.035Z,99873.67
2023-04-22T08:42:06.969Z,99868.66
2023-04-22T08:43:10.476Z,99867.48
2023-04-22T08:44:14.811Z,99869.40
2023-04-22T08:45:17.587Z,99877.54
2023-04-22T08:46:23.031Z,99865.26
2023-04-22T08:47:26.373Z,99874.59
2023-04-22T08:48:29.793Z,99874.80
2023-04-22T08:49:36.446Z,99871.47
2023-04-22T08:50:40.499Z,99871.81
2023-04-22T08:51:43.547Z,99869.44
2023-04-22T08:52:48.497Z,99869.64
2023-04-22T08:53:50.804Z,99866.27
2023-04-22T08:54:53.923Z,99865.20
2023-04-22T08:55:58.421Z,99865.82
2023-04-22T08:57:03.113Z,99866.23
2023-04-22T08:58:06.488Z,99869.13
2023-04-22T08:59:12.662Z,99874.14
2023-04-22T09:00:18.016Z,99867.23
2023-04-22T09:01:23.561Z,99868.91
2023-04-22T09:02:28.676Z,99868.47
2023-04-22T09:03:32.423Z,99858.08
2023-04-22T09:04:35.974Z,99861.83
2023-04-22T09:05:40.784Z,99864.84
2023-04-22T09:06:43.974Z,99862.13
2023-04-22T09:07:49.804Z,99858.38
2023-04-22T09:08:52.561Z,99864.84
2023-04-22T09:09:55.758Z,99868.33
2023-04-22T09:11:00.919Z,99863.69
2023-04-22T09:12:06.105Z,99865.15
2023-04-22T09:13:11.165Z,99869.25
2023-04-22T09:14:14.686Z,99856.75
2023-04-22T09:15:18.594Z,99869.00
2023-04-22T09:16:21.977Z,99858.38
2023-04-22T09:17:36.740Z,99857.80
2023-04-22T09:18:41.952Z,99866.61
2023-04-22T09:19:45.261Z,99867.98
2023-04-22T09:20:49.285Z,99866.64
2023-04-22T09:21:54.416Z,99867.11
2023-04-22T09:23:01.841Z,99858.98
2023-04-22T09:24:06.071Z,99884.41
2023-04-22T09:25:26.608Z,99878.98
2023-04-22T09:26:34.307Z,99890.17
2023-04-22T09:27:37.995Z,99881.88
2023-04-22T09:28:42.128Z,99883.20
2023-04-22T09:29:53.028Z,99884.11
2023-04-22T09:30:57.286Z,99884.34
2023-04-22T09:32:01.187Z,99880.38
2023-04-22T09:33:05.579Z,99892.50
2023-04-22T09:34:12.454Z,99883.89
2023-04-22T09:35:17.287Z,99877.53
2023-04-22T09:36:26.147Z,99884.56
2023-04-22T09:37:36.108Z,99880.69
2023-04-22T09:38:34.766Z,99875.17
2023-04-22T09:39:38.230Z,99874.86
2023-04-22T09:40:44.238Z,99864.91
2023-04-22T09:41:51.035Z,99859.53
2023-04-22T09:42:56.125Z,99866.09
2023-04-22T09:43:59.531Z,99868.70
2023-04-22T09:45:03.008Z,99873.50
2023-04-22T09:46:06.308Z,99861.36
2023-04-22T09:47:12.028Z,99866.39
2023-04-22T09:48:16.374Z,99870.05
2023-04-22T09:49:20.586Z,99874.68
2023-04-22T09:50:26.218Z,99877.86
2023-04-22T09:51:29.992Z,99878.20
2023-04-22T09:52:33.624Z,99870.46
2023-04-22T09:53:38.697Z,99878.41
2023-04-22T09:54:43.838Z,99879.03
2023-04-22T09:55:49.022Z,99886.59
2023-04-22T09:56:52.535Z,99883.50
2023-04-22T09:57:57.218Z,99884.45
2023-04-22T09:59:01.725Z,99891.60
2023-04-22T10:00:08.377Z,99891.23
2023-04-22T10:01:11.185Z,99889.28
2023-04-22T10:02:14.937Z,99891.45
2023-04-22T10:03:21.234Z,99893.45
2023-04-22T10:04:25.769Z,99901.73
2023-04-22T10:05:31.214Z,99900.56
2023-04-22T10:06:34.938Z,99908.81
2023-04-22T10:07:40.654Z,99913.42
2023-04-22T10:08:45.187Z,99903.84
2023-04-22T10:09:48.586Z,99904.18
2023-04-22T10:10:52.925Z,99908.80
2023-04-22T10:11:58.549Z,99897.39
2023-04-22T10:13:03.366Z,99888.95
2023-04-22T10:14:06.781Z,99899.25
2023-04-22T10:15:10.193Z,99893.92
2023-04-22T10:16:14.502Z,99893.57
2023-04-22T10:17:18.342Z,99889.97
2023-04-22T10:18:27.336Z,99890.97
2023-04-22T10:19:32.665Z,99902.48
2023-04-22T10:20:39.316Z,99907.77
2023-04-22T10:21:43.694Z,99910.16
2023-04-22T10:22:48.799Z,99896.56
2023-04-22T10:23:52.218Z,99904.75
2023-04-22T10:24:57.906Z,99887.97
2023-04-22T10:26:01.393Z,99896.45
2023-04-22T10:27:08.200Z,99892.25
2023-04-22T10:28:13.717Z,99891.05
2023-04-22T10:29:19.548Z,99901.97
2023-04-22T10:30:31.277Z,99889.36
2023-04-22T10:31:39.127Z,99898.50
2023-04-22T10:32:42.940Z,99888.23
2023-04-22T10:33:46.009Z,99893.02
2023-04-22T10:34:49.931Z,99885.02
2023-04-22T10:36:11.277Z,99878.72
2023-04-22T10:37:16.760Z,99885.98
2023-04-22T10:38:19.864Z,99892.44
2023-04-22T10:39:23.903Z,99888.98
2023-04-22T10:40:26.477Z,99893.64
2023-04-22T10:41:31.127Z,99898.11
2023-04-22T10:42:37.027Z,99895.05
2023-04-22T10:43:44.466Z,99895.56
2023-04-22T10:44:49.058Z,99897.19
2023-04-22T10:45:52.702Z,99886.91
2023-04-22T10:46:58.219Z,99890.45
2023-04-22T10:48:03.824Z,99893.45
2023-04-22T10:49:08.007Z,99901.42
2023-04-22T10:50:24.783Z,99898.33
2023-04-22T10:51:43.194Z,99896.02
2023-04-22T10:52:47.947Z,99887.92
2023-04-22T10:53:50.303Z,99900.42
2023-04-22T10:54:54.426Z,99901.98
2023-04-22T10:55:57.790Z,99895.35
2023-04-22T10:57:04.799Z,99888.45
2023-04-22T10:58:08.998Z,99902.13
2023-04-22T10:59:20.373Z,99904.86
2023-04-22T11:00:41.692Z,99891.47
2023-04-22T11:01:37.549Z,99898.00
2023-04-22T11:02:41.819Z,99894.08
2023-04-22T11:03:46.389Z,99896.73
2023-04-22T11:04:50.431Z,99900.28
2023-04-22T11:05:55.902Z,99901.45
2023-04-22T11:07:20.781Z,99900.72
2023-04-22T11:08:26.109Z,99895.59
2023-04-22T11:09:29.353Z,99905.77
2023-04-22T11:10:34.723Z,99892.91
2023-04-22T11:11:38.927Z,99898.42
2023-04-22T11:12:44.610Z,99906.85
2023-04-22T11:13:51.026Z,99899.81
2023-04-22T11:14:54.868Z,99911.03
2023-04-22T11:15:58.291Z,99908.12
2023-04-22T11:17:04.556Z,99909.19
2023-04-22T11:18:12.381Z,99906.14
2023-04-22T11:19:16.023Z,99901.09
2023-04-22T11:20:19.809Z,99909.98
2023-04-22T11:21:22.715Z,99913.17
2023-04-22T11:22:26.038Z,99907.84
2023-04-22T11:23:30.492Z,99907.06
2023-04-22T11:24:34.672Z,99911.23
2023-04-22T11:25:38.175Z,99910.73
2023-04-22T11:26:41.664Z,99922.00
2023-04-22T11:27:45.081Z,99910.92
2023-04-22T11:28:48.888Z,99923.50
2023-04-22T11:30:02.222Z,99918.94
2023-04-22T11:31:08.104Z,99924.81
2023-04-22T11:32:14.258Z,99923.42
2023-04-22T11:33:18.072Z,99924.27
2023-04-22T11:34:22.388Z,99915.13
2023-04-22T11:35:32.271Z,99924.63
2023-04-22T11:36:37.450Z,99918.35
2023-04-22T11:37:42.919Z,99915.66
2023-04-22T11:38:47.489Z,99920.22
2023-04-22T11:40:13.546Z,99916.78
2023-04-22T11:41:00.872Z,99911.88
2023-04-22T11:42:10.134Z,99910.81
2023-04-22T11:43:13.428Z,99914.23
2023-04-22T11:44:16.929Z,99914.64
2023-04-22T11:45:22.179Z,99911.89
2023-04-22T11:46:29.063Z,99914.16
2023-04-22T11:47:33.111Z,99917.60
2023-04-22T11:48:35.531Z,99913.62
2023-04-22T11:49:39.653Z,99914.90
2023-04-22T11:50:46.872Z,99916.70
2023-04-22T11:51:55.036Z,99914.29
2023-04-22T11:53:02.928Z,99909.91
2023-04-22T11:54:06.734Z,99914.35
2023-04-22T11:55:13.904Z,99918.38
2023-04-22T11:56:16.545Z,99915.20
2023-04-22T11:57:21.857Z,99920.25
2023-04-22T11:58:27.342Z,99927.39
2023-04-22T11:59:30.524Z,99917.24
2023-04-22T12:00:35.710Z,99918.00
2023-04-22T12:01:42.449Z,99912.28
2023-04-22T12:02:49.677Z,99917.39
2023-04-22T12:03:55.062Z,99911.37
2023-04-22T12:04:59.362Z,99919.11
2023-04-22T12:06:04.823Z,99918.73
2023-04-22T12:07:08.286Z,99919.20
2023-04-22T12:08:12.870Z,99923.02
2023-04-22T12:09:15.987Z,99909.72
2023-04-22T12:10:25.154Z,99905.45
2023-04-22T12:11:30.731Z,99916.97
2023-04-22T12:12:35.570Z,99915.55
2023-04-22T12:13:44.452Z,99919.77
2023-04-22T12:14:49.713Z,99921.27
2023-04-22T12:15:58.832Z,99913.91
2023-04-22T12:17:06.062Z,99917.16
2023-04-22T12:18:10.032Z,99911.77
2023-04-22T12:19:13.521Z,99911.05
2023-04-22T12:20:17.435Z,99905.59
2023-04-22T12:21:22.544Z,99914.91
2023-04-22T12:22:28.412Z,99906.98
2023-04-22T12:23:33.662Z,99908.32
2023-04-22T12:24:37.416Z,99905.91
2023-04-22T12:25:42.186Z,99907.48
2023-04-22T12:26:45.575Z,99906.34
2023-04-22T12:27:48.979Z,99910.34
2023-04-22T12:28:53.246Z,99902.02
2023-04-22T12:29:58.943Z,99906.39
2023-04-22T12:31:03.303Z,99906.82
2023-04-22T12:32:07.070Z,99907.00
2023-04-22T12:33:10.371Z,99900.33
2023-04-22T12:34:14.443Z,99905.86
2023-04-22T12:35:19.092Z,99911.36
2023-04-22T12:36:22.753Z,99908.20
2023-04-22T12:37:25.119Z,99905.59
2023-04-22T12:38:28.303Z,99908.39
2023-04-22T12:39:32.728Z,99908.78
2023-04-22T12:40:40.062Z,99903.48
2023-04-22T12:41:44.784Z,99903.77
2023-04-22T12:42:47.030Z,99907.94
2023-04-22T12:43:50.546Z,99901.66
2023-04-22T12:44:53.822Z,99904.89